sensor_id;sensor_type;location;lat;lon;timestamp;pressure;altitude;pressure_sealevel;temperature;humidity
84995;BME280;75312;47.528;19.016;2024-02-23T00:00:01;97560.84;;;10.13;56.95
84995;BME280;75312;47.528;19.016;2024-02-23T00:00:35;97567.16;;;10.19;57.13
84995;BME280;75312;47.528;19.016;2024-02-23T00:01:08;97571.88;;;10.24;56.95
84995;BME280;75312;47.528;19.016;2024-02-23T00:01:41;97577.56;;;10.12;57.31
84995;BME280;75312;47.528;19.016;2024-02-23T00:02:12;97571.75;;;10.17;56.54
84995;BME280;75312;47.528;19.016;2024-02-23T00:02:42;97572.13;;;10.14;56.74
84995;BME280;75312;47.528;19.016;2024-02-23T00:03:15;97569.69;;;10.12;57.02
84995;BME280;75312;47.528;19.016;2024-02-23T00:03:48;97576.28;;;10.08;56.96
84995;BME280;75312;47.528;19.016;2024-02-23T00:04:19;97577.34;;;10.14;56.74
84995;BME280;75312;47.528;19.016;2024-02-23T00:04:49;97575.84;;;10.20;57.23
84995;BME280;75312;47.528;19.016;2024-02-23T00:05:20;97574.31;;;10.25;56.65
84995;BME280;75312;47.528;19.016;2024-02-23T00:05:50;97564.09;;;10.30;56.99
84995;BME280;75312;47.528;19.016;2024-02-23T00:06:21;97569.53;;;10.29;56.93
84995;BME280;75312;47.528;19.016;2024-02-23T00:07:02;97566.81;;;10.22;56.63
84995;BME280;75312;47.528;19.016;2024-02-23T00:07:35;97577.44;;;10.21;56.81
84995;BME280;75312;47.528;19.016;2024-02-23T00:08:07;97580.78;;;10.14;57.27
84995;BME280;75312;47.528;19.016;2024-02-23T00:08:39;97565.72;;;10.16;57.21
84995;BME280;75312;47.528;19.016;2024-02-23T00:09:11;97580.88;;;10.21;57.28
84995;BME280;75312;47.528;19.016;2024-02-23T00:09:42;97569.31;;;10.15;57.16
84995;BME280;75312;47.528;19.016;2024-02-23T00:10:12;97567.28;;;10.11;57.34
84995;BME280;75312;47.528;19.016;2024-02-23T00:10:43;97570.50;;;10.13;57.50
84995;BME280;75312;47.528;19.016;2024-02-23T00:11:14;97569.31;;;10.15;57.21
84995;BME280;75312;47.528;19.016;2024-02-23T00:11:44;97565.56;;;10.18;56.92
84995;BME280;75312;47.528;19.016;2024-02-23T00:12:15;97570.25;;;10.23;56.89
84995;BME280;75312;47.528;19.016;2024-02-23T00:12:45;97568.97;;;10.19;57.10
84995;BME280;75312;47.528;19.016;2024-02-23T00:13:17;97572.50;;;10.11;57.19
84995;BME280;75312;47.528;19.016;2024-02-23T00:13:50;97574.03;;;10.05;57.07
84995;BME280;75312;47.528;19.016;2024-02-23T00:14:21;97571.31;;;9.99;57.59
84995;BME280;75312;47.528;19.016;2024-02-23T00:14:52;97573.84;;;10.07;57.62
84995;BME280;75312;47.528;19.016;2024-02-23T00:15:22;97571.22;;;10.07;57.51
84995;BME280;75312;47.528;19.016;2024-02-23T00:15:54;97573.56;;;10.16;56.87
84995;BME280;75312;47.528;19.016;2024-02-23T00:16:27;97560.94;;;10.20;57.12
84995;BME280;75312;47.528;19.016;2024-02-23T00:16:59;97566.81;;;10.22;57.36
84995;BME280;75312;47.528;19.016;2024-02-23T00:17:31;97573.75;;;10.15;56.75
84995;BME280;75312;47.528;19.016;2024-02-23T00:18:02;97568.69;;;10.13;57.50
84995;BME280;75312;47.528;19.016;2024-02-23T00:18:34;97570.94;;;10.16;56.53
84995;BME280;75312;47.528;19.016;2024-02-23T00:19:04;97565.56;;;10.18;57.22
84995;BME280;75312;47.528;19.016;2024-02-23T00:19:35;97571.41;;;10.20;57.08
84995;BME280;75312;47.528;19.016;2024-02-23T00:20:08;97567.78;;;10.21;56.56
84995;BME280;75312;47.528;19.016;2024-02-23T00:20:41;97572.41;;;10.19;57.05
84995;BME280;75312;47.528;19.016;2024-02-23T00:21:11;97553.28;;;10.19;56.81
84995;BME280;75312;47.528;19.016;2024-02-23T00:21:42;97578.25;;;10.21;57.39
84995;BME280;75312;47.528;19.016;2024-02-23T00:22:13;97568.44;;;10.23;57.32
84995;BME280;75312;47.528;19.016;2024-02-23T00:22:43;97567.78;;;10.21;57.23
84995;BME280;75312;47.528;19.016;2024-02-23T00:23:16;97572.16;;;10.29;56.69
84995;BME280;75312;47.528;19.016;2024-02-23T00:23:49;97574.13;;;10.27;56.71
84995;BME280;75312;47.528;19.016;2024-02-23T00:24:22;97575.19;;;10.32;56.93
84995;BME280;75312;47.528;19.016;2024-02-23T00:24:53;97576.75;;;10.27;57.16
84995;BME280;75312;47.528;19.016;2024-02-23T00:25:23;97576.03;;;10.18;57.27
84995;BME280;75312;47.528;19.016;2024-02-23T00:25:54;97576.19;;;10.31;57.21
84995;BME280;75312;47.528;19.016;2024-02-23T00:26:25;97575.94;;;10.26;57.25
84995;BME280;75312;47.528;19.016;2024-02-23T00:26:55;97569.06;;;10.25;57.22
84995;BME280;75312;47.528;19.016;2024-02-23T00:27:26;97574.94;;;10.12;57.58
84995;BME280;75312;47.528;19.016;2024-02-23T00:27:56;97576.94;;;10.10;57.83
84995;BME280;75312;47.528;19.016;2024-02-23T00:28:27;97564.91;;;10.16;57.19
84995;BME280;75312;47.528;19.016;2024-02-23T00:28:58;97578.25;;;10.21;57.60
84995;BME280;75312;47.528;19.016;2024-02-23T00:29:28;97564.81;;;10.24;57.25
84995;BME280;75312;47.528;19.016;2024-02-23T00:29:59;97573.22;;;10.20;57.43
84995;BME280;75312;47.528;19.016;2024-02-23T00:30:30;97567.44;;;10.24;57.61
84995;BME280;75312;47.528;19.016;2024-02-23T00:31:00;97571.59;;;10.33;56.71
84995;BME280;75312;47.528;19.016;2024-02-23T00:31:31;97566.53;;;10.32;56.90
84995;BME280;75312;47.528;19.016;2024-02-23T00:32:02;97571.53;;;10.27;56.59
84995;BME280;75312;47.528;19.016;2024-02-23T00:32:32;97577.63;;;10.34;57.32
84995;BME280;75312;47.528;19.016;2024-02-23T00:33:03;97572.56;;;10.32;57.28
84995;BME280;75312;47.528;19.016;2024-02-23T00:33:34;97572.56;;;10.32;56.68
84995;BME280;75312;47.528;19.016;2024-02-23T00:34:05;97580.72;;;10.37;57.01
84995;BME280;75312;47.528;19.016;2024-02-23T00:34:40;97577.00;;;10.32;56.78
84995;BME280;75312;47.528;19.016;2024-02-23T00:35:11;97578.72;;;10.25;57.69
84995;BME280;75312;47.528;19.016;2024-02-23T00:35:44;97570.97;;;10.31;57.29
84995;BME280;75312;47.528;19.016;2024-02-23T00:36:14;97574.19;;;10.33;56.90
84995;BME280;75312;47.528;19.016;2024-02-23T00:36:45;97568.03;;;10.41;57.12
84995;BME280;75312;47.528;19.016;2024-02-23T00:37:16;97576.38;;;10.45;56.51
84995;BME280;75312;47.528;19.016;2024-02-23T00:37:46;97571.94;;;10.45;56.69
84995;BME280;75312;47.528;19.016;2024-02-23T00:38:17;97570.44;;;10.36;56.50
84995;BME280;75312;47.528;19.016;2024-02-23T00:38:50;97573.56;;;10.31;56.65
84995;BME280;75312;47.528;19.016;2024-02-23T00:39:20;97568.78;;;10.20;57.22
84995;BME280;75312;47.528;19.016;2024-02-23T00:39:53;97564.03;;;10.24;57.60
84995;BME280;75312;47.528;19.016;2024-02-23T00:40:26;97566.81;;;10.22;57.46
84995;BME280;75312;47.528;19.016;2024-02-23T00:40:57;97566.72;;;10.30;57.36
84995;BME280;75312;47.528;19.016;2024-02-23T00:41:27;97566.91;;;10.29;57.62
84995;BME280;75312;47.528;19.016;2024-02-23T00:41:58;97566.34;;;10.33;57.26
84995;BME280;75312;47.528;19.016;2024-02-23T00:42:29;97567.00;;;10.35;57.17
84995;BME280;75312;47.528;19.016;2024-02-23T00:42:59;97568.34;;;10.31;57.29
84995;BME280;75312;47.528;19.016;2024-02-23T00:43:44;97569.84;;;10.40;56.58
84995;BME280;75312;47.528;19.016;2024-02-23T00:44:17;97566.25;;;10.41;56.87
84995;BME280;75312;47.528;19.016;2024-02-23T00:44:48;97563.38;;;10.36;57.08
84995;BME280;75312;47.528;19.016;2024-02-23T00:45:19;97566.81;;;10.37;57.18
84995;BME280;75312;47.528;19.016;2024-02-23T00:45:49;97559.16;;;10.35;56.85
84995;BME280;75312;47.528;19.016;2024-02-23T00:46:22;97560.16;;;10.34;57.23
84995;BME280;75312;47.528;19.016;2024-02-23T00:46:53;97559.59;;;10.24;57.71
84995;BME280;75312;47.528;19.016;2024-02-23T00:47:24;97569.91;;;10.26;57.99
84995;BME280;75312;47.528;19.016;2024-02-23T00:47:54;97565.09;;;10.29;57.95
84995;BME280;75312;47.528;19.016;2024-02-23T00:48:25;97562.75;;;10.34;57.50
84995;BME280;75312;47.528;19.016;2024-02-23T00:48:55;97569.63;;;10.35;57.15
84995;BME280;75312;47.528;19.016;2024-02-23T00:49:27;97565.81;;;10.38;57.46
84995;BME280;75312;47.528;19.016;2024-02-23T00:49:58;97560.66;;;10.45;56.74
84995;BME280;75312;47.528;19.016;2024-02-23T00:50:28;97569.03;;;10.40;57.13
84995;BME280;75312;47.528;19.016;2024-02-23T00:50:59;97565.81;;;10.38;56.92
84995;BME280;75312;47.528;19.016;2024-02-23T00:51:30;97564.44;;;10.42;56.68
84995;BME280;75312;47.528;19.016;2024-02-23T00:52:01;97557.25;;;10.29;57.52
84995;BME280;75312;47.528;19.016;2024-02-23T00:52:31;97560.41;;;10.25;57.85
84995;BME280;75312;47.528;19.016;2024-02-23T00:53:02;97569.06;;;10.25;57.59
84995;BME280;75312;47.528;19.016;2024-02-23T00:53:33;97564.28;;;10.29;57.48
84995;BME280;75312;47.528;19.016;2024-02-23T00:54:04;97566.53;;;10.32;57.36
84995;BME280;75312;47.528;19.016;2024-02-23T00:54:34;97566.91;;;10.29;57.92
84995;BME280;75312;47.528;19.016;2024-02-23T00:55:05;97567.16;;;10.34;57.45
84995;BME280;75312;47.528;19.016;2024-02-23T00:55:38;97568.34;;;10.31;57.27
84995;BME280;75312;47.528;19.016;2024-02-23T00:56:11;97567.09;;;10.27;57.86
84995;BME280;75312;47.528;19.016;2024-02-23T00:56:43;97562.50;;;10.29;57.63
84995;BME280;75312;47.528;19.016;2024-02-23T00:57:13;97561.69;;;10.29;57.63
84995;BME280;75312;47.528;19.016;2024-02-23T00:57:44;97563.09;;;10.31;57.42
84995;BME280;75312;47.528;19.016;2024-02-23T00:58:15;97565.38;;;10.34;57.57
84995;BME280;75312;47.528;19.016;2024-02-23T00:58:46;97565.28;;;10.28;57.84
84995;BME280;75312;47.528;19.016;2024-02-23T00:59:17;97559.44;;;10.26;57.55
84995;BME280;75312;47.528;19.016;2024-02-23T00:59:47;97559.16;;;10.35;57.25
84995;BME280;75312;47.528;19.016;2024-02-23T01:00:18;97554.16;;;10.40;57.68
84995;BME280;75312;47.528;19.016;2024-02-23T01:00:48;97557.66;;;10.48;57.54
84995;BME280;75312;47.528;19.016;2024-02-23T01:01:19;97556.56;;;10.42;57.19
84995;BME280;75312;47.528;19.016;2024-02-23T01:01:49;97548.72;;;10.42;57.79
84995;BME280;75312;47.528;19.016;2024-02-23T01:02:20;97558.38;;;10.41;57.67
84995;BME280;75312;47.528;19.016;2024-02-23T01:02:51;97555.16;;;10.39;57.36
84995;BME280;75312;47.528;19.016;2024-02-23T01:03:24;97555.84;;;10.48;57.62
84995;BME280;75312;47.528;19.016;2024-02-23T01:03:54;97561.56;;;10.37;57.61
84995;BME280;75312;47.528;19.016;2024-02-23T01:04:25;97551.41;;;10.49;57.60
84995;BME280;75312;47.528;19.016;2024-02-23T01:04:56;97557.53;;;10.34;57.63
84995;BME280;75312;47.528;19.016;2024-02-23T01:05:31;97550.72;;;10.40;58.07
84995;BME280;75312;47.528;19.016;2024-02-23T01:06:01;97549.91;;;10.39;57.65
84995;BME280;75312;47.528;19.016;2024-02-23T01:06:32;97548.72;;;10.42;58.26
84995;BME280;75312;47.528;19.016;2024-02-23T01:07:02;97552.19;;;10.42;57.74
84995;BME280;75312;47.528;19.016;2024-02-23T01:07:36;97545.50;;;10.40;58.40
84995;BME280;75312;47.528;19.016;2024-02-23T01:08:06;97547.47;;;10.38;58.50
84995;BME280;75312;47.528;19.016;2024-02-23T01:08:37;97566.44;;;10.40;58.39
84995;BME280;75312;47.528;19.016;2024-02-23T01:09:09;97540.88;;;10.42;57.89
84995;BME280;75312;47.528;19.016;2024-02-23T01:09:40;97552.53;;;10.39;58.41
84995;BME280;75312;47.528;19.016;2024-02-23T01:10:11;97542.13;;;10.46;57.94
84995;BME280;75312;47.528;19.016;2024-02-23T01:10:44;97548.19;;;10.47;58.06
84995;BME280;75312;47.528;19.016;2024-02-23T01:11:15;97549.72;;;10.41;58.74
84995;BME280;75312;47.528;19.016;2024-02-23T01:11:46;97536.41;;;10.36;58.77
84995;BME280;75312;47.528;19.016;2024-02-23T01:12:17;97542.16;;;10.31;58.49
84995;BME280;75312;47.528;19.016;2024-02-23T01:12:50;97549.22;;;10.31;59.48
84995;BME280;75312;47.528;19.016;2024-02-23T01:13:21;97539.81;;;10.36;58.98
84995;BME280;75312;47.528;19.016;2024-02-23T01:13:53;97539.66;;;10.23;59.24
84995;BME280;75312;47.528;19.016;2024-02-23T01:14:24;97543.34;;;10.29;59.05
84995;BME280;75312;47.528;19.016;2024-02-23T01:14:55;97542.91;;;10.25;59.77
84995;BME280;75312;47.528;19.016;2024-02-23T01:15:25;97539.56;;;10.31;59.90
84995;BME280;75312;47.528;19.016;2024-02-23T01:15:56;97535.59;;;10.35;59.25
84995;BME280;75312;47.528;19.016;2024-02-23T01:16:26;97543.78;;;10.32;59.45
84995;BME280;75312;47.528;19.016;2024-02-23T01:16:57;97541.16;;;10.32;59.58
84995;BME280;75312;47.528;19.016;2024-02-23T01:17:27;97535.50;;;10.29;59.50
84995;BME280;75312;47.528;19.016;2024-02-23T01:17:58;97541.13;;;10.26;59.68
84995;BME280;75312;47.528;19.016;2024-02-23T01:18:29;97535.69;;;10.27;59.81
84995;BME280;75312;47.528;19.016;2024-02-23T01:18:59;97529.81;;;10.25;60.27
84995;BME280;75312;47.528;19.016;2024-02-23T01:19:32;97535.50;;;10.29;59.57
84995;BME280;75312;47.528;19.016;2024-02-23T01:20:03;97529.66;;;10.27;60.27
84995;BME280;75312;47.528;19.016;2024-02-23T01:20:34;97526.72;;;10.22;60.84
84995;BME280;75312;47.528;19.016;2024-02-23T01:21:04;97527.25;;;10.17;61.06
84995;BME280;75312;47.528;19.016;2024-02-23T01:21:35;97534.88;;;10.12;61.30
84995;BME280;75312;47.528;19.016;2024-02-23T01:22:05;97527.84;;;10.12;61.17
84995;BME280;75312;47.528;19.016;2024-02-23T01:22:36;97537.38;;;10.20;60.73
84995;BME280;75312;47.528;19.016;2024-02-23T01:23:07;97539.66;;;10.23;60.62
84995;BME280;75312;47.528;19.016;2024-02-23T01:23:38;97532.63;;;10.24;61.01
84995;BME280;75312;47.528;19.016;2024-02-23T01:24:11;97524.66;;;10.17;60.93
84995;BME280;75312;47.528;19.016;2024-02-23T01:24:41;97527.22;;;10.10;61.43
84995;BME280;75312;47.528;19.016;2024-02-23T01:25:12;97521.31;;;10.08;61.72
84995;BME280;75312;47.528;19.016;2024-02-23T01:25:46;97533.50;;;10.16;61.17
84995;BME280;75312;47.528;19.016;2024-02-23T01:26:18;97532.34;;;10.19;61.27
84995;BME280;75312;47.528;19.016;2024-02-23T01:26:49;97529.53;;;10.20;61.25
84995;BME280;75312;47.528;19.016;2024-02-23T01:27:20;97528.91;;;10.18;61.71
84995;BME280;75312;47.528;19.016;2024-02-23T01:27:58;97519.78;;;10.14;61.37
84995;BME280;75312;47.528;19.016;2024-02-23T01:28:28;97525.03;;;10.14;62.18
84995;BME280;75312;47.528;19.016;2024-02-23T01:28:59;97526.91;;;10.20;61.92
84995;BME280;75312;47.528;19.016;2024-02-23T01:29:32;97534.41;;;10.08;62.02
84995;BME280;75312;47.528;19.016;2024-02-23T01:30:06;97532.63;;;10.09;62.59
84995;BME280;75312;47.528;19.016;2024-02-23T01:30:37;97522.78;;;10.11;62.64
84995;BME280;75312;47.528;19.016;2024-02-23T01:31:11;97527.41;;;10.09;62.55
84995;BME280;75312;47.528;19.016;2024-02-23T01:31:42;97522.69;;;10.04;62.91
84995;BME280;75312;47.528;19.016;2024-02-23T01:32:12;97521.59;;;10.13;62.72
84995;BME280;75312;47.528;19.016;2024-02-23T01:32:43;97518.59;;;10.16;62.35
84995;BME280;75312;47.528;19.016;2024-02-23T01:33:13;97529.28;;;10.00;63.65
84995;BME280;75312;47.528;19.016;2024-02-23T01:33:44;97513.59;;;10.00;63.62
84995;BME280;75312;47.528;19.016;2024-02-23T01:34:15;97513.88;;;9.91;63.84
84995;BME280;75312;47.528;19.016;2024-02-23T01:34:45;97510.09;;;9.93;64.13
84995;BME280;75312;47.528;19.016;2024-02-23T01:35:18;97515.25;;;9.86;64.45
84995;BME280;75312;47.528;19.016;2024-02-23T01:35:49;97509.81;;;9.88;64.45
84995;BME280;75312;47.528;19.016;2024-02-23T01:36:22;97507.94;;;9.82;65.15
84995;BME280;75312;47.528;19.016;2024-02-23T01:36:53;97513.53;;;9.79;65.29
84995;BME280;75312;47.528;19.016;2024-02-23T01:37:26;97498.94;;;9.84;65.36
84995;BME280;75312;47.528;19.016;2024-02-23T01:37:57;97517.13;;;9.93;65.41
84995;BME280;75312;47.528;19.016;2024-02-23T01:38:27;97508.34;;;10.00;65.01
84995;BME280;75312;47.528;19.016;2024-02-23T01:39:02;97519.03;;;9.84;65.70
84995;BME280;75312;47.528;19.016;2024-02-23T01:39:35;97506.84;;;9.91;65.46
84995;BME280;75312;47.528;19.016;2024-02-23T01:40:06;97511.72;;;9.94;65.82
84995;BME280;75312;47.528;19.016;2024-02-23T01:40:36;97512.97;;;9.83;65.91
84995;BME280;75312;47.528;19.016;2024-02-23T01:41:07;97510.97;;;10.00;64.80
84995;BME280;75312;47.528;19.016;2024-02-23T01:41:41;97507.81;;;9.90;65.93
84995;BME280;75312;47.528;19.016;2024-02-23T01:42:14;97502.06;;;9.80;66.61
84995;BME280;75312;47.528;19.016;2024-02-23T01:42:44;97514.34;;;9.79;66.45
84995;BME280;75312;47.528;19.016;2024-02-23T01:43:18;97500.09;;;9.82;66.65
84995;BME280;75312;47.528;19.016;2024-02-23T01:43:48;97506.41;;;9.87;67.05
84995;BME280;75312;47.528;19.016;2024-02-23T01:44:19;97510.53;;;9.82;66.89
84995;BME280;75312;47.528;19.016;2024-02-23T01:44:52;97514.16;;;9.81;67.62
84995;BME280;75312;47.528;19.016;2024-02-23T01:45:22;97510.00;;;9.72;67.81
84995;BME280;75312;47.528;19.016;2024-02-23T01:45:53;97505.34;;;9.67;68.07
84995;BME280;75312;47.528;19.016;2024-02-23T01:46:24;97507.50;;;9.78;67.26
84995;BME280;75312;47.528;19.016;2024-02-23T01:46:55;97507.03;;;9.75;67.98
84995;BME280;75312;47.528;19.016;2024-02-23T01:47:28;97505.59;;;9.87;67.49
84995;BME280;75312;47.528;19.016;2024-02-23T01:48:00;97507.03;;;9.90;67.60
84995;BME280;75312;47.528;19.016;2024-02-23T01:48:34;97506.59;;;9.86;68.11
84995;BME280;75312;47.528;19.016;2024-02-23T01:49:07;97504.78;;;9.86;67.89
84995;BME280;75312;47.528;19.016;2024-02-23T01:49:38;97510.28;;;9.77;68.12
84995;BME280;75312;47.528;19.016;2024-02-23T01:50:09;97503.78;;;9.73;68.87
84995;BME280;75312;47.528;19.016;2024-02-23T01:50:43;97502.97;;;9.72;68.53
84995;BME280;75312;47.528;19.016;2024-02-23T01:51:14;97498.75;;;9.71;68.73
84995;BME280;75312;47.528;19.016;2024-02-23T01:51:45;97508.84;;;9.59;69.52
84995;BME280;75312;47.528;19.016;2024-02-23T01:52:17;97491.91;;;9.55;70.09
84995;BME280;75312;47.528;19.016;2024-02-23T01:52:50;97504.78;;;9.57;69.84
84995;BME280;75312;47.528;19.016;2024-02-23T01:53:24;97503.34;;;9.54;70.35
84995;BME280;75312;47.528;19.016;2024-02-23T01:53:55;97498.81;;;9.48;70.75
84995;BME280;75312;47.528;19.016;2024-02-23T01:54:26;97492.44;;;9.51;70.45
84995;BME280;75312;47.528;19.016;2024-02-23T01:55:02;97494.69;;;9.54;70.08
84995;BME280;75312;47.528;19.016;2024-02-23T01:55:33;97497.66;;;9.66;70.40
84995;BME280;75312;47.528;19.016;2024-02-23T01:56:06;97504.06;;;9.63;69.56
84995;BME280;75312;47.528;19.016;2024-02-23T01:56:37;97502.88;;;9.66;69.59
84995;BME280;75312;47.528;19.016;2024-02-23T01:57:10;97506.31;;;9.66;70.14
84995;BME280;75312;47.528;19.016;2024-02-23T01:57:41;97504.69;;;9.65;70.00
84995;BME280;75312;47.528;19.016;2024-02-23T01:58:12;97494.69;;;9.54;70.09
84995;BME280;75312;47.528;19.016;2024-02-23T01:58:43;97499.84;;;9.62;70.11
84995;BME280;75312;47.528;19.016;2024-02-23T01:59:17;97506.25;;;9.59;70.88
84995;BME280;75312;47.528;19.016;2024-02-23T01:59:53;97500.00;;;9.46;71.22
84995;BME280;75312;47.528;19.016;2024-02-23T02:00:27;97498.81;;;9.48;70.93
84995;BME280;75312;47.528;19.016;2024-02-23T02:00:59;97500.00;;;9.46;71.02
84995;BME280;75312;47.528;19.016;2024-02-23T02:01:32;97493.97;;;9.45;70.88
84995;BME280;75312;47.528;19.016;2024-02-23T02:02:03;97502.72;;;9.52;70.70
84995;BME280;75312;47.528;19.016;2024-02-23T02:02:34;97498.81;;;9.48;71.08
84995;BME280;75312;47.528;19.016;2024-02-23T02:03:05;97502.53;;;9.54;71.00
84995;BME280;75312;47.528;19.016;2024-02-23T02:03:38;97504.53;;;9.52;70.80
84995;BME280;75312;47.528;19.016;2024-02-23T02:04:09;97496.41;;;9.47;71.38
84995;BME280;75312;47.528;19.016;2024-02-23T02:04:40;97502.53;;;9.54;71.13
84995;BME280;75312;47.528;19.016;2024-02-23T02:05:10;97504.97;;;9.55;70.59
84995;BME280;75312;47.528;19.016;2024-02-23T02:05:41;97504.34;;;9.53;70.61
84995;BME280;75312;47.528;19.016;2024-02-23T02:06:12;97504.44;;;9.45;71.65
84995;BME280;75312;47.528;19.016;2024-02-23T02:06:46;97506.84;;;9.47;71.52
84995;BME280;75312;47.528;19.016;2024-02-23T02:07:17;97513.88;;;9.46;71.56
84995;BME280;75312;47.528;19.016;2024-02-23T02:07:50;97507.66;;;9.47;71.26
84995;BME280;75312;47.528;19.016;2024-02-23T02:08:26;97500.00;;;9.46;71.23
84995;BME280;75312;47.528;19.016;2024-02-23T02:08:56;97506.03;;;9.46;71.23
84995;BME280;75312;47.528;19.016;2024-02-23T02:09:29;97501.53;;;9.40;71.51
84995;BME280;75312;47.528;19.016;2024-02-23T02:10:05;97501.81;;;9.45;71.68
84995;BME280;75312;47.528;19.016;2024-02-23T02:10:39;97498.00;;;9.48;71.68
84995;BME280;75312;47.528;19.016;2024-02-23T02:11:12;97499.81;;;9.47;71.91
84995;BME280;75312;47.528;19.016;2024-02-23T02:11:49;97506.78;;;9.55;71.11
84995;BME280;75312;47.528;19.016;2024-02-23T02:12:29;97505.16;;;9.54;71.45
84995;BME280;75312;47.528;19.016;2024-02-23T02:13:03;97499.19;;;9.45;71.61
84995;BME280;75312;47.528;19.016;2024-02-23T02:13:37;97505.22;;;9.46;71.98
84995;BME280;75312;47.528;19.016;2024-02-23T02:14:07;97505.59;;;9.43;71.96
84995;BME280;75312;47.528;19.016;2024-02-23T02:14:41;97509.03;;;9.43;71.93
84995;BME280;75312;47.528;19.016;2024-02-23T02:15:13;97500.28;;;9.51;71.33
84995;BME280;75312;47.528;19.016;2024-02-23T02:15:44;97507.66;;;9.47;71.65
84995;BME280;75312;47.528;19.016;2024-02-23T02:16:14;97501.00;;;9.45;71.69
84995;BME280;75312;47.528;19.016;2024-02-23T02:16:45;97506.41;;;9.43;71.89
84995;BME280;75312;47.528;19.016;2024-02-23T02:17:16;97503.34;;;9.40;72.21
84995;BME280;75312;47.528;19.016;2024-02-23T02:17:46;97505.41;;;9.44;71.37
84995;BME280;75312;47.528;19.016;2024-02-23T02:18:17;97496.22;;;9.48;71.43
84995;BME280;75312;47.528;19.016;2024-02-23T02:18:47;97497.31;;;9.54;71.82
84995;BME280;75312;47.528;19.016;2024-02-23T02:19:18;97501.34;;;9.56;71.47
84995;BME280;75312;47.528;19.016;2024-02-23T02:19:49;97498.00;;;9.48;71.75
84995;BME280;75312;47.528;19.016;2024-02-23T02:20:23;97507.56;;;9.55;71.60
84995;BME280;75312;47.528;19.016;2024-02-23T02:20:58;97500.53;;;9.41;71.98
84995;BME280;75312;47.528;19.016;2024-02-23T02:21:31;97502.53;;;9.39;71.90
84995;BME280;75312;47.528;19.016;2024-02-23T02:22:02;97503.88;;;9.35;72.69
84995;BME280;75312;47.528;19.016;2024-02-23T02:22:33;97503.69;;;9.37;72.29
84995;BME280;75312;47.528;19.016;2024-02-23T02:23:04;97503.34;;;9.40;72.18
84995;BME280;75312;47.528;19.016;2024-02-23T02:23:39;97501.25;;;9.50;71.51
84995;BME280;75312;47.528;19.016;2024-02-23T02:24:12;97502.97;;;9.57;71.50
84995;BME280;75312;47.528;19.016;2024-02-23T02:24:43;97501.44;;;9.63;71.96
84995;BME280;75312;47.528;19.016;2024-02-23T02:25:18;97506.25;;;9.59;71.45
84995;BME280;75312;47.528;19.016;2024-02-23T02:25:58;97499.28;;;9.37;72.35
84995;BME280;75312;47.528;19.016;2024-02-23T02:26:30;97504.41;;;9.30;72.33
84995;BME280;75312;47.528;19.016;2024-02-23T02:27:00;97498.47;;;9.37;72.63
84995;BME280;75312;47.528;19.016;2024-02-23T02:27:33;97507.13;;;9.37;71.95
84995;BME280;75312;47.528;19.016;2024-02-23T02:28:06;97498.91;;;9.40;72.07
84995;BME280;75312;47.528;19.016;2024-02-23T02:28:42;97500.91;;;9.38;72.46
84995;BME280;75312;47.528;19.016;2024-02-23T02:29:13;97501.91;;;9.37;72.50
84995;BME280;75312;47.528;19.016;2024-02-23T02:29:44;97500.28;;;9.36;72.62
84995;BME280;75312;47.528;19.016;2024-02-23T02:30:15;97507.84;;;9.46;72.04
84995;BME280;75312;47.528;19.016;2024-02-23T02:30:51;97499.47;;;9.36;72.77
84995;BME280;75312;47.528;19.016;2024-02-23T02:31:24;97500.63;;;9.33;73.22
84995;BME280;75312;47.528;19.016;2024-02-23T02:31:57;97503.34;;;9.40;73.11
84995;BME280;75312;47.528;19.016;2024-02-23T02:32:28;97502.25;;;9.34;72.76
84995;BME280;75312;47.528;19.016;2024-02-23T02:32:58;97498.19;;;9.31;73.26
84995;BME280;75312;47.528;19.016;2024-02-23T02:33:31;97506.69;;;9.34;73.37
84995;BME280;75312;47.528;19.016;2024-02-23T02:34:03;97500.28;;;9.36;73.05
84995;BME280;75312;47.528;19.016;2024-02-23T02:34:34;97498.09;;;9.40;73.07
84995;BME280;75312;47.528;19.016;2024-02-23T02:35:05;97497.47;;;9.38;72.67
84995;BME280;75312;47.528;19.016;2024-02-23T02:35:38;97502.78;;;9.29;74.12
84995;BME280;75312;47.528;19.016;2024-02-23T02:36:08;97500.34;;;9.28;74.03
84995;BME280;75312;47.528;19.016;2024-02-23T02:36:41;97501.53;;;9.25;73.82
84995;BME280;75312;47.528;19.016;2024-02-23T02:37:12;97504.31;;;9.24;73.87
84995;BME280;75312;47.528;19.016;2024-02-23T02:37:42;97500.97;;;9.30;73.11
84995;BME280;75312;47.528;19.016;2024-02-23T02:38:13;97496.94;;;9.27;73.62
84995;BME280;75312;47.528;19.016;2024-02-23T02:38:44;97502.72;;;9.38;73.62
84995;BME280;75312;47.528;19.016;2024-02-23T02:39:14;97502.09;;;9.36;73.56
84995;BME280;75312;47.528;19.016;2024-02-23T02:39:45;97506.13;;;9.38;72.95
84995;BME280;75312;47.528;19.016;2024-02-23T02:40:15;97504.06;;;9.34;73.24
84995;BME280;75312;47.528;19.016;2024-02-23T02:40:46;97497.56;;;9.29;73.79
84995;BME280;75312;47.528;19.016;2024-02-23T02:41:18;97503.41;;;9.31;74.46
84995;BME280;75312;47.528;19.016;2024-02-23T02:41:49;97503.97;;;9.27;74.52
84995;BME280;75312;47.528;19.016;2024-02-23T02:42:20;97502.97;;;9.28;74.28
84995;BME280;75312;47.528;19.016;2024-02-23T02:42:50;97506.09;;;9.23;75.10
84995;BME280;75312;47.528;19.016;2024-02-23T02:43:21;97506.28;;;9.22;74.98
84995;BME280;75312;47.528;19.016;2024-02-23T02:43:51;97500.34;;;9.28;74.33
84995;BME280;75312;47.528;19.016;2024-02-23T02:44:24;97501.47;;;9.34;73.65
84995;BME280;75312;47.528;19.016;2024-02-23T02:44:55;97504.16;;;9.25;74.83
84995;BME280;75312;47.528;19.016;2024-02-23T02:45:25;97509.25;;;9.19;75.12
84995;BME280;75312;47.528;19.016;2024-02-23T02:45:58;97502.75;;;9.15;75.26
84995;BME280;75312;47.528;19.016;2024-02-23T02:46:29;97509.19;;;9.27;74.41